Accueil
METAR-TAF:

METAR-TAF

Aéroports :

Aéroport international de Rarotonga

Rarotonga, Îles Cook

latitude: 21-12S, longitude: 159-49W, altitude: 7 m

Observation

Le bulletin a été fait il y a 1 heure et 0 minutes, à 22:00 UTC
Vent 9 kt de est/nord-est
Température 26°C
Humidité 65%
Pression 1017 hPa
Visibilité 10 km ou plus
Quelques nuages à une hauteur de 2500 ft
Nuages épars à une hauteur de 4000 ft

METAR: NCRG 202200Z 06009KT 9999 FEW025 SCT040 26/19 Q1017

Heure: 13:00 (23:00 UTC)

Prévision

Le bulletin a été fait il y a 5 heures et 51 minutes, à 17:09 UTC
Prévision valable du 20 à 18 UTC au 21 à 18 UTC
Vent 9 kt de est
Visibilité 10 km ou plus
Nuages épars à une hauteur de 2000 ft

TAF: NCRG 201709Z 2018/2118 09009KT 9999 SCT020

Observations et prévisions météorologiques de plus de 4000 aéroports (messages METAR et TAF).

Les stations disponibles sont représentées par des disques jaunes et rouges sur la carte.

Passer la souris dessus pour voir le nom de la station.

Cliquer dessus pour voir les observations et prévisions météorologiques.

Pour changer de carte: cliquez sur les boutons verts avec une croix noire pour zoomer, sur le bouton vert avec un tiret pour effectuer un zoom arrière, ou sur les flèches vertes pour les cartes adjacentes.


METAR-TAF: